Time;durP1;ratioP1;P1;durP2;ratioP2;P2;SDS_P1;SDS_P2;PMS_P1;PMS_P2;Temp;Humidity;BMP_temperature;BMP_pressure;BME280_temperature;BME280_humidity;BME280_pressure;Samples;Min_cycle;Max_cycle;Signal;HPM_P1;HPM_P2
2022/10/03 00:00:40;;;;;;;7.70;4.90;;;12.40;99.90;;;;;;5048552;28;20245;-33
2022/10/03 00:03:33;;;;;;;8.50;5.00;;;12.30;99.90;;;;;;5077126;28;20616;-31
2022/10/03 00:06:23;;;;;;;7.57;4.70;;;12.30;99.90;;;;;;5054672;28;20305;-31
2022/10/03 00:08:50;;;;;;;8.30;4.77;;;12.30;99.90;;;;;;5066777;28;20203;-31
2022/10/03 00:11:44;;;;;;;12.37;4.50;;;12.30;99.90;;;;;;5068292;28;20492;-31
2022/10/03 00:14:38;;;;;;;9.07;4.80;;;12.20;99.90;;;;;;5048241;28;20220;-31
2022/10/03 00:17:25;;;;;;;7.37;5.27;;;12.20;99.90;;;;;;5046645;28;20299;-32
2022/10/03 00:20:15;;;;;;;8.43;5.00;;;12.20;99.90;;;;;;5069700;28;20199;-32
2022/10/03 00:22:59;;;;;;;7.47;4.63;;;12.20;99.90;;;;;;5064335;28;20203;-30
2022/10/03 00:25:33;;;;;;;8.27;4.77;;;12.20;99.90;;;;;;5053443;28;20232;-31
2022/10/03 00:28:25;;;;;;;6.20;4.80;;;12.10;99.90;;;;;;5055340;28;20542;-31
2022/10/03 00:31:11;;;;;;;7.53;5.07;;;12.10;99.90;;;;;;5048491;28;20210;-32
2022/10/03 00:34:03;;;;;;;8.30;4.77;;;12.00;99.90;;;;;;5064919;28;20218;-32
2022/10/03 00:36:49;;;;;;;7.03;5.47;;;12.00;99.90;;;;;;5067986;28;20210;-32
2022/10/03 00:39:36;;;;;;;7.97;4.97;;;12.00;99.90;;;;;;5065713;28;20207;-31
2022/10/03 00:42:13;;;;;;;8.17;5.10;;;11.90;99.90;;;;;;5052214;28;20211;-32
2022/10/03 00:45:05;;;;;;;7.97;5.47;;;11.90;99.90;;;;;;5060542;28;20196;-32
2022/10/03 00:47:44;;;;;;;7.10;5.00;;;11.90;99.90;;;;;;5060135;28;20228;-32
2022/10/03 00:50:32;;;;;;;9.50;5.27;;;11.80;99.90;;;;;;5066602;28;20629;-32
2022/10/03 00:53:26;;;;;;;6.00;4.80;;;11.80;99.90;;;;;;5063763;28;20694;-31
2022/10/03 00:56:25;;;;;;;9.17;5.93;;;11.80;99.90;;;;;;5068240;28;20202;-32
2022/10/03 00:59:15;;;;;;;8.30;5.40;;;11.80;99.90;;;;;;5061479;28;20266;-32
2022/10/03 01:01:49;;;;;;;7.80;5.30;;;11.70;99.90;;;;;;5054897;28;20201;-32
2022/10/03 01:04:43;;;;;;;8.63;6.10;;;11.80;99.90;;;;;;5054142;28;20215;-32
2022/10/03 01:07:23;;;;;;;6.80;5.57;;;11.70;99.90;;;;;;5059260;28;20678;-32
2022/10/03 01:10:21;;;;;;;8.67;6.10;;;11.70;99.90;;;;;;5048291;28;20208;-32
2022/10/03 01:13:00;;;;;;;11.17;6.40;;;11.70;99.90;;;;;;5054560;28;20206;-32
2022/10/03 01:16:06;;;;;;;11.00;5.90;;;11.60;99.90;;;;;;5058480;28;20358;-32
2022/10/03 01:19:14;;;;;;;13.03;5.97;;;11.60;99.90;;;;;;5046450;28;20238;-32
2022/10/03 01:22:05;;;;;;;9.47;6.33;;;11.60;99.90;;;;;;5047578;28;20261;-32
2022/10/03 01:25:20;;;;;;;8.90;5.60;;;11.60;99.90;;;;;;5047886;28;20768;-31
2022/10/03 01:31:15;;;;;;;12.13;6.50;;;11.60;99.90;;;;;;5047261;28;20208;-32
2022/10/03 01:33:52;;;;;;;9.40;6.57;;;11.60;99.90;;;;;;5058490;28;20208;-32
2022/10/03 01:36:32;;;;;;;9.90;5.87;;;11.60;99.90;;;;;;5046881;28;20574;-32
2022/10/03 01:39:12;;;;;;;10.07;5.97;;;11.60;99.90;;;;;;5047142;28;20208;-32
2022/10/03 01:41:59;;;;;;;9.33;5.60;;;11.60;99.90;;;;;;5046961;28;20192;-32
2022/10/03 01:44:29;;;;;;;9.33;5.97;;;11.60;99.90;;;;;;5053187;28;20588;-32
2022/10/03 01:47:29;;;;;;;8.97;6.30;;;11.60;99.90;;;;;;5047314;28;20738;-32
2022/10/03 01:50:16;;;;;;;10.10;6.40;;;11.60;99.90;;;;;;5048725;28;20582;-32
2022/10/03 01:53:03;;;;;;;11.53;6.63;;;11.50;99.90;;;;;;5058337;28;20200;-32
2022/10/03 01:55:40;;;;;;;7.30;5.93;;;11.50;99.90;;;;;;5054691;28;20704;-31
2022/10/03 01:58:31;;;;;;;10.07;6.37;;;11.50;99.90;;;;;;5064444;28;20223;-32
2022/10/03 02:01:24;;;;;;;8.97;5.70;;;11.50;99.90;;;;;;5065336;28;20218;-32
2022/10/03 02:04:03;;;;;;;9.80;6.40;;;11.50;99.90;;;;;;5054691;28;20262;-31
2022/10/03 02:07:04;;;;;;;9.03;6.50;;;11.40;99.90;;;;;;5062299;28;20223;-32
2022/10/03 02:09:49;;;;;;;7.87;5.67;;;11.40;99.90;;;;;;5065960;28;20776;-32
2022/10/03 02:12:35;;;;;;;12.00;6.57;;;11.40;99.90;;;;;;5050501;28;20686;-31
2022/10/03 02:15:13;;;;;;;8.23;6.17;;;11.40;99.90;;;;;;5051612;28;20191;-32
2022/10/03 02:17:52;;;;;;;8.70;6.37;;;11.30;99.90;;;;;;5063345;28;20242;-31
2022/10/03 02:21:01;;;;;;;11.53;6.67;;;11.30;99.90;;;;;;5067108;28;20203;-31
2022/10/03 02:23:31;;;;;;;10.40;6.53;;;11.30;99.90;;;;;;5045660;28;20295;-32
2022/10/03 02:26:08;;;;;;;10.30;6.37;;;11.30;99.90;;;;;;5046906;28;20222;-32
2022/10/03 02:28:55;;;;;;;9.23;6.37;;;11.30;99.90;;;;;;5060465;28;20211;-31
2022/10/03 02:31:22;;;;;;;8.83;6.00;;;11.30;99.90;;;;;;5057802;28;20203;-32
2022/10/03 02:34:29;;;;;;;8.63;6.83;;;11.20;99.90;;;;;;5050640;28;20636;-32
2022/10/03 02:37:24;;;;;;;10.33;6.27;;;11.30;99.90;;;;;;5049625;28;20207;-32
2022/10/03 02:40:04;;;;;;;7.10;6.27;;;11.20;99.90;;;;;;5064128;28;20672;-32
2022/10/03 02:42:52;;;;;;;9.33;6.50;;;11.20;99.90;;;;;;5060741;28;20231;-30
2022/10/03 02:45:28;;;;;;;10.07;6.70;;;11.20;99.90;;;;;;5065742;28;20623;-31
2022/10/03 02:48:22;;;;;;;6.57;5.87;;;11.20;99.90;;;;;;5064259;28;20221;-31
2022/10/03 02:51:22;;;;;;;12.20;6.47;;;11.10;99.90;;;;;;5049555;28;20230;-32
2022/10/03 02:54:04;;;;;;;10.17;6.03;;;11.10;99.90;;;;;;5047653;28;20200;-32
2022/10/03 02:56:56;;;;;;;10.40;6.37;;;11.10;99.90;;;;;;5045321;28;20218;-31
2022/10/03 02:59:37;;;;;;;9.07;6.17;;;11.10;99.90;;;;;;5046231;28;20219;-30
2022/10/03 03:02:17;;;;;;;11.07;6.40;;;11.10;99.90;;;;;;5054800;28;20231;-30
2022/10/03 03:05:23;;;;;;;10.43;6.23;;;11.00;99.90;;;;;;5064841;28;20226;-31
2022/10/03 03:08:02;;;;;;;10.47;6.20;;;11.00;99.90;;;;;;5060748;28;20228;-31
2022/10/03 03:10:57;;;;;;;9.63;6.13;;;11.00;99.90;;;;;;5046133;28;20192;-32
2022/10/03 03:14:01;;;;;;;8.67;5.83;;;11.00;99.90;;;;;;5059550;28;20349;-32
2022/10/03 03:16:39;;;;;;;7.47;6.10;;;11.00;99.90;;;;;;5046137;28;20596;-31
2022/10/03 03:19:25;;;;;;;6.63;5.60;;;10.90;99.90;;;;;;5063405;28;20231;-31
2022/10/03 03:22:08;;;;;;;7.50;6.13;;;10.90;99.90;;;;;;5059458;28;20228;-32
2022/10/03 03:24:59;;;;;;;10.10;6.87;;;10.90;99.90;;;;;;5045925;28;20220;-32
2022/10/03 03:27:49;;;;;;;10.33;6.80;;;10.90;99.90;;;;;;5049661;28;20633;-32
2022/10/03 03:30:22;;;;;;;8.50;6.20;;;10.90;99.90;;;;;;5052579;28;20239;-31
2022/10/03 03:33:11;;;;;;;8.40;6.20;;;10.80;99.90;;;;;;5056573;28;20251;-32
2022/10/03 03:36:25;;;;;;;7.37;5.47;;;10.80;99.90;;;;;;5065037;28;20199;-32
2022/10/03 03:39:22;;;;;;;10.60;6.80;;;10.80;99.90;;;;;;5061376;28;20686;-30
2022/10/03 03:42:07;;;;;;;9.33;6.23;;;10.80;99.90;;;;;;5041740;28;20655;-32
2022/10/03 03:44:59;;;;;;;10.07;6.10;;;10.80;99.90;;;;;;5045580;28;20765;-32
2022/10/03 03:47:57;;;;;;;9.67;7.00;;;10.70;99.90;;;;;;5055129;28;20216;-32
2022/10/03 03:50:47;;;;;;;7.57;6.77;;;10.80;99.90;;;;;;5045598;28;20204;-32
2022/10/03 03:53:42;;;;;;;7.27;6.10;;;10.70;99.90;;;;;;5046136;28;20219;-31
2022/10/03 03:56:46;;;;;;;8.23;6.17;;;10.70;99.90;;;;;;5045244;28;20204;-31
2022/10/03 03:59:19;;;;;;;9.40;6.23;;;10.60;99.90;;;;;;5043387;28;20210;-32
2022/10/03 04:02:19;;;;;;;8.73;6.10;;;10.60;99.90;;;;;;5048773;28;20207;-32
2022/10/03 04:05:20;;;;;;;9.83;6.17;;;10.60;99.90;;;;;;5062119;28;20294;-32
2022/10/03 04:07:59;;;;;;;7.90;5.90;;;10.60;99.90;;;;;;5057864;28;21030;-32
2022/10/03 04:10:44;;;;;;;8.70;5.53;;;10.60;99.90;;;;;;5045174;28;20208;-32
2022/10/03 04:13:30;;;;;;;7.47;5.43;;;10.60;99.90;;;;;;5060463;28;20200;-32
2022/10/03 04:19:55;;;;;;;9.07;5.83;;;10.50;99.90;;;;;;5055691;28;20246;-32
2022/10/03 04:22:44;;;;;;;6.63;5.03;;;10.50;99.90;;;;;;5060341;28;20675;-32
2022/10/03 04:25:26;;;;;;;7.77;5.90;;;10.40;99.90;;;;;;5045197;28;20641;-32
2022/10/03 04:28:10;;;;;;;7.47;5.70;;;10.40;99.90;;;;;;5055572;28;20721;-32
2022/10/03 04:30:58;;;;;;;7.47;6.00;;;10.40;99.90;;;;;;5059558;28;20211;-32
2022/10/03 04:33:53;;;;;;;7.17;6.00;;;10.40;99.90;;;;;;5043900;28;20223;-32
2022/10/03 04:36:58;;;;;;;7.17;6.20;;;10.30;99.90;;;;;;5057931;28;20667;-32
2022/10/03 04:39:41;;;;;;;6.87;5.23;;;10.30;99.90;;;;;;5045420;28;20287;-32
2022/10/03 04:42:27;;;;;;;6.80;5.63;;;10.30;99.90;;;;;;5043817;28;20242;-32
2022/10/03 04:45:29;;;;;;;6.60;5.87;;;10.30;99.90;;;;;;5045340;28;20215;-32
2022/10/03 04:48:28;;;;;;;7.27;5.70;;;10.30;99.90;;;;;;5048402;28;20343;-32
2022/10/03 04:51:05;;;;;;;7.83;5.60;;;10.30;99.90;;;;;;5056362;28;20200;-32
2022/10/03 04:53:49;;;;;;;7.00;5.90;;;10.20;99.90;;;;;;5067802;28;20227;-32
2022/10/03 04:56:25;;;;;;;7.40;5.73;;;10.20;99.90;;;;;;5065035;28;20737;-32
2022/10/03 04:59:03;;;;;;;8.90;5.70;;;10.20;99.90;;;;;;5062365;28;20206;-32
2022/10/03 05:01:51;;;;;;;9.30;6.23;;;10.20;99.90;;;;;;5060793;28;20196;-32
2022/10/03 05:04:31;;;;;;;7.53;5.90;;;10.20;99.90;;;;;;5049113;28;20216;-31
2022/10/03 05:07:11;;;;;;;9.10;6.13;;;10.20;99.90;;;;;;5057693;28;20700;-33
2022/10/03 05:10:16;;;;;;;9.63;6.20;;;10.20;99.90;;;;;;5067991;28;20779;-32
2022/10/03 05:13:10;;;;;;;8.80;6.00;;;10.10;99.90;;;;;;5047869;28;20566;-33
2022/10/03 05:15:49;;;;;;;9.07;6.33;;;10.10;99.90;;;;;;5047806;28;20193;-32
2022/10/03 05:18:34;;;;;;;9.03;6.33;;;10.10;99.90;;;;;;5058432;28;20293;-32
2022/10/03 05:21:21;;;;;;;7.23;5.97;;;10.10;99.90;;;;;;5053530;28;20492;-32
2022/10/03 05:24:04;;;;;;;7.17;6.13;;;10.10;99.90;;;;;;5053171;28;20302;-32
2022/10/03 05:26:57;;;;;;;9.67;6.47;;;10.10;99.90;;;;;;5047490;28;20614;-32
2022/10/03 05:29:41;;;;;;;9.60;6.83;;;10.10;99.90;;;;;;5056539;28;20265;-32
2022/10/03 05:32:50;;;;;;;9.70;6.13;;;10.10;99.90;;;;;;5054171;28;20242;-32
2022/10/03 05:35:40;;;;;;;6.60;5.80;;;10.10;99.90;;;;;;5057085;28;20635;-32
2022/10/03 05:38:13;;;;;;;6.97;5.40;;;10.10;99.90;;;;;;5065674;28;20195;-31
2022/10/03 05:41:06;;;;;;;8.73;5.40;;;10.00;99.90;;;;;;5066135;28;20207;-31
2022/10/03 05:44:26;;;;;;;6.93;5.60;;;10.00;99.90;;;;;;5065727;28;20215;-31
2022/10/03 05:47:43;;;;;;;9.47;6.03;;;10.00;99.90;;;;;;5055146;28;20192;-31
2022/10/03 05:50:04;;;;;;;7.40;5.83;;;10.00;99.90;;;;;;5057888;28;20207;-32
2022/10/03 05:52:47;;;;;;;8.93;6.07;;;10.00;99.90;;;;;;5062954;28;20265;-33
2022/10/03 05:55:35;;;;;;;7.40;6.40;;;10.00;99.90;;;;;;5060529;28;20218;-32
2022/10/03 05:58:03;;;;;;;8.57;5.90;;;10.00;99.90;;;;;;5060888;28;20247;-32
2022/10/03 06:00:35;;;;;;;9.77;6.10;;;10.00;99.90;;;;;;5064030;28;20199;-31
2022/10/03 06:03:29;;;;;;;16.83;6.37;;;10.00;99.90;;;;;;5067033;28;20195;-33
2022/10/03 06:06:19;;;;;;;11.80;6.10;;;10.00;99.90;;;;;;5066662;28;21128;-32
2022/10/03 06:08:50;;;;;;;8.80;6.13;;;10.00;99.90;;;;;;5065623;28;20239;-32
2022/10/03 06:11:23;;;;;;;6.73;5.63;;;10.00;99.90;;;;;;5065995;28;20433;-32
2022/10/03 06:14:12;;;;;;;7.33;6.10;;;10.00;99.90;;;;;;5063289;28;20207;-31
2022/10/03 06:17:14;;;;;;;9.23;6.67;;;10.00;99.90;;;;;;5058529;28;20195;-32
2022/10/03 06:20:03;;;;;;;7.13;6.00;;;10.00;99.90;;;;;;5066180;28;20206;-31
2022/10/03 06:23:09;;;;;;;6.57;5.50;;;10.00;99.90;;;;;;5063610;28;20215;-31
2022/10/03 06:25:39;;;;;;;7.60;6.13;;;10.00;99.90;;;;;;5052265;28;20676;-32
2022/10/03 06:28:29;;;;;;;9.10;6.53;;;10.00;99.90;;;;;;5061094;28;20713;-32
2022/10/03 06:31:01;;;;;;;8.33;6.50;;;10.00;99.90;;;;;;5064534;28;20199;-32
2022/10/03 06:33:50;;;;;;;8.43;5.97;;;10.10;99.90;;;;;;5065862;28;20743;-31
2022/10/03 06:36:58;;;;;;;9.90;6.10;;;10.10;99.90;;;;;;5055920;28;20204;-32
2022/10/03 06:39:56;;;;;;;10.50;6.60;;;10.10;99.90;;;;;;5045314;28;20254;-31
2022/10/03 06:42:43;;;;;;;9.63;6.70;;;10.10;99.90;;;;;;5044740;28;20384;-32
2022/10/03 06:45:23;;;;;;;8.80;6.40;;;10.10;99.90;;;;;;5057030;28;20208;-31
2022/10/03 06:48:27;;;;;;;9.40;5.93;;;10.10;99.90;;;;;;5048229;28;20254;-32
2022/10/03 06:51:30;;;;;;;7.47;5.80;;;10.10;99.90;;;;;;5051284;28;20299;-33
2022/10/03 06:54:36;;;;;;;9.03;6.07;;;10.20;99.90;;;;;;5047047;28;20584;-31
2022/10/03 06:57:09;;;;;;;11.43;6.23;;;10.20;99.90;;;;;;5055789;28;20230;-32
2022/10/03 06:59:43;;;;;;;8.70;5.87;;;10.20;99.90;;;;;;5065703;28;20212;-32
2022/10/03 07:02:28;;;;;;;11.40;6.97;;;10.20;99.90;;;;;;5065212;28;20674;-32
2022/10/03 07:04:58;;;;;;;10.27;6.80;;;10.30;99.90;;;;;;5065556;28;20412;-31
2022/10/03 07:07:43;;;;;;;12.37;6.20;;;10.30;99.90;;;;;;5054648;28;20694;-32
2022/10/03 07:10:12;;;;;;;9.60;6.47;;;10.30;99.90;;;;;;5044552;28;20228;-31
2022/10/03 07:12:53;;;;;;;11.10;6.67;;;10.30;99.90;;;;;;5045688;28;20204;-32
2022/10/03 07:15:48;;;;;;;10.90;7.03;;;10.40;99.90;;;;;;5061041;28;20204;-31
2022/10/03 07:19:11;;;;;;;12.63;6.63;;;10.50;99.90;;;;;;5048155;28;20316;-32
2022/10/03 07:22:02;;;;;;;10.77;6.20;;;10.50;99.90;;;;;;5057557;28;20194;-32
2022/10/03 07:24:50;;;;;;;13.93;6.27;;;10.60;99.90;;;;;;5054937;28;20237;-32
2022/10/03 07:27:44;;;;;;;18.63;9.30;;;10.60;99.90;;;;;;5061344;28;20750;-32
2022/10/03 07:30:23;;;;;;;18.53;8.70;;;10.70;99.90;;;;;;5061103;28;20200;-32
2022/10/03 07:32:55;;;;;;;12.27;7.50;;;10.80;99.90;;;;;;5063838;28;20511;-31
2022/10/03 07:39:20;;;;;;;8.37;6.70;;;10.90;99.90;;;;;;5060325;28;20613;-31
2022/10/03 07:42:24;;;;;;;9.57;6.73;;;11.00;99.90;;;;;;5060916;28;20215;-31
2022/10/03 07:45:00;;;;;;;9.73;6.50;;;11.00;99.90;;;;;;5059464;28;20199;-32
2022/10/03 07:48:10;;;;;;;10.80;6.83;;;11.10;99.90;;;;;;5061314;28;20211;-32
2022/10/03 07:50:40;;;;;;;7.90;5.70;;;11.20;99.90;;;;;;5052248;28;20625;-31
2022/10/03 07:53:33;;;;;;;12.37;6.30;;;11.20;99.90;;;;;;5059790;28;20296;-32
2022/10/03 07:56:04;;;;;;;8.73;6.43;;;11.30;99.90;;;;;;5061276;28;20294;-32
2022/10/03 07:59:04;;;;;;;10.50;6.07;;;11.40;99.90;;;;;;5062506;28;20239;-31
2022/10/03 08:01:56;;;;;;;9.90;6.93;;;11.50;99.90;;;;;;5060555;28;20213;-32
2022/10/03 08:04:44;;;;;;;6.67;5.77;;;11.50;99.90;;;;;;5054090;28;20203;-32
2022/10/03 08:07:50;;;;;;;11.93;6.60;;;11.60;99.90;;;;;;5056260;28;20635;-31
2022/10/03 08:10:36;;;;;;;8.33;6.13;;;11.70;99.90;;;;;;5051245;28;20206;-30
2022/10/03 08:13:34;;;;;;;10.87;6.60;;;11.80;99.90;;;;;;5057626;28;20199;-31
2022/10/03 08:16:18;;;;;;;11.60;6.20;;;11.90;99.90;;;;;;5067777;28;20219;-31
2022/10/03 08:19:11;;;;;;;10.63;6.00;;;11.90;99.90;;;;;;5064794;28;20251;-30
2022/10/03 08:21:56;;;;;;;8.60;6.60;;;12.00;99.90;;;;;;5063710;28;20353;-31
2022/10/03 08:24:42;;;;;;;9.90;6.07;;;12.10;99.90;;;;;;5065840;28;20237;-31
2022/10/03 08:27:23;;;;;;;10.53;6.40;;;12.20;99.90;;;;;;5057647;28;20334;-32
2022/10/03 08:29:59;;;;;;;10.17;6.77;;;12.20;99.90;;;;;;5051778;28;20237;-32
2022/10/03 08:33:04;;;;;;;12.97;7.00;;;12.30;99.90;;;;;;5059484;28;20199;-31
2022/10/03 08:36:02;;;;;;;10.13;6.10;;;12.40;99.90;;;;;;5064921;28;20207;-32
2022/10/03 08:39:07;;;;;;;10.53;6.33;;;12.50;99.90;;;;;;5066824;28;20204;-32
2022/10/03 08:41:49;;;;;;;12.77;7.37;;;12.50;99.90;;;;;;5063425;28;20227;-32
2022/10/03 08:44:39;;;;;;;13.93;7.17;;;12.60;99.90;;;;;;5057040;28;20207;-32
2022/10/03 08:47:21;;;;;;;11.90;5.83;;;12.60;99.90;;;;;;5063083;28;20307;-31
2022/10/03 08:50:33;;;;;;;10.87;6.63;;;12.70;99.90;;;;;;5065672;28;20223;-32
2022/10/03 08:53:30;;;;;;;12.47;6.23;;;12.80;99.90;;;;;;5051779;28;20264;-32
2022/10/03 08:56:31;;;;;;;8.27;5.97;;;12.90;99.90;;;;;;5059848;28;20222;-32
2022/10/03 08:59:32;;;;;;;15.03;6.23;;;13.00;99.90;;;;;;5064815;28;20522;-32
2022/10/03 09:01:59;;;;;;;11.27;6.00;;;13.00;99.90;;;;;;5073202;28;20203;-32
2022/10/03 09:04:53;;;;;;;14.07;6.33;;;13.10;99.90;;;;;;5066774;28;20225;-32
2022/10/03 09:07:32;;;;;;;11.30;5.27;;;13.20;99.90;;;;;;5062725;28;20215;-32
2022/10/03 09:10:21;;;;;;;7.07;5.00;;;13.30;99.90;;;;;;5060312;28;20698;-31
2022/10/03 09:13:00;;;;;;;12.70;5.37;;;13.40;99.90;;;;;;5058772;28;20222;-32
2022/10/03 09:15:58;;;;;;;8.53;5.03;;;13.50;99.90;;;;;;5064186;28;20257;-31
2022/10/03 09:18:45;;;;;;;8.47;5.03;;;13.50;99.90;;;;;;5066945;28;20329;-31
2022/10/03 09:21:37;;;;;;;13.43;5.73;;;13.60;99.90;;;;;;5065641;28;20238;-31
2022/10/03 09:24:19;;;;;;;8.33;5.33;;;13.70;99.90;;;;;;5064143;28;20200;-32
2022/10/03 09:27:05;;;;;;;10.90;5.83;;;13.80;99.90;;;;;;5056836;28;20208;-32
2022/10/03 09:29:47;;;;;;;10.37;5.63;;;13.80;99.90;;;;;;5063952;28;20227;-31
2022/10/03 09:32:41;;;;;;;7.40;4.83;;;13.90;99.90;;;;;;5052496;28;20567;-32
2022/10/03 09:35:40;;;;;;;8.57;5.50;;;14.00;99.90;;;;;;5054395;28;20210;-31
2022/10/03 09:38:39;;;;;;;10.33;5.33;;;14.10;99.90;;;;;;5058553;28;20234;-32
2022/10/03 09:41:40;;;;;;;9.57;5.37;;;14.20;99.90;;;;;;5064208;28;20212;-33
2022/10/03 09:44:27;;;;;;;12.47;5.07;;;14.30;99.90;;;;;;5065118;28;20578;-33
2022/10/03 09:47:29;;;;;;;9.17;5.10;;;14.40;99.90;;;;;;5077933;28;20215;-33
2022/10/03 09:50:35;;;;;;;9.00;4.30;;;14.40;99.90;;;;;;5060110;28;20246;-33
2022/10/03 09:53:23;;;;;;;8.67;4.30;;;14.50;99.90;;;;;;5045304;28;20555;-33
2022/10/03 09:56:21;;;;;;;9.00;3.97;;;14.60;99.90;;;;;;5055469;28;20227;-33
2022/10/03 09:59:14;;;;;;;8.03;3.53;;;14.70;99.90;;;;;;5064512;28;20217;-33
2022/10/03 10:01:53;;;;;;;9.93;3.53;;;14.80;99.90;;;;;;5064359;28;20191;-32
2022/10/03 10:04:33;;;;;;;18.23;3.27;;;14.90;99.90;;;;;;5064762;28;20322;-32
2022/10/03 10:07:54;;;;;;;6.63;1.83;;;15.00;99.90;;;;;;5059680;28;20195;-33
2022/10/03 10:10:40;;;;;;;10.47;2.40;;;15.10;99.90;;;;;;5057181;28;20218;-33
2022/10/03 10:13:26;;;;;;;5.80;2.07;;;15.20;99.90;;;;;;5064558;28;20753;-33
2022/10/03 10:16:34;;;;;;;6.57;1.70;;;15.30;99.90;;;;;;5054741;28;20298;-32
2022/10/03 10:19:33;;;;;;;9.30;2.27;;;15.40;99.90;;;;;;5063593;28;20243;-33
2022/10/03 10:22:39;;;;;;;7.30;2.43;;;15.50;99.90;;;;;;5055312;28;20208;-33
2022/10/03 10:25:29;;;;;;;5.67;2.30;;;15.60;99.90;;;;;;5053365;28;20624;-33
2022/10/03 10:28:23;;;;;;;7.90;2.10;;;15.60;99.90;;;;;;5061357;28;20666;-33
2022/10/03 10:31:30;;;;;;;7.27;1.80;;;15.70;99.90;;;;;;5058941;28;20208;-33
2022/10/03 10:34:18;;;;;;;4.00;1.40;;;15.80;99.90;;;;;;5064481;28;20210;-32
2022/10/03 10:37:32;;;;;;;7.90;1.50;;;15.90;99.90;;;;;;5058287;28;20246;-33
2022/10/03 10:40:13;;;;;;;5.47;1.40;;;16.00;99.90;;;;;;5052598;28;20258;-33
2022/10/03 10:43:10;;;;;;;6.40;2.07;;;16.10;99.90;;;;;;5059998;28;20647;-33
2022/10/03 10:46:14;;;;;;;7.90;1.80;;;16.10;99.90;;;;;;5063788;28;20665;-33
2022/10/03 10:49:00;;;;;;;6.23;1.60;;;16.20;99.90;;;;;;5062868;28;20258;-33
2022/10/03 10:51:54;;;;;;;6.53;1.40;;;16.30;99.90;;;;;;5062466;28;20206;-33
2022/10/03 10:54:21;;;;;;;6.83;1.43;;;16.30;99.90;;;;;;5045607;28;20223;-33
2022/10/03 10:57:13;;;;;;;6.50;1.40;;;16.40;99.90;;;;;;5050368;28;20234;-31
2022/10/03 10:59:43;;;;;;;8.90;2.40;;;16.50;99.90;;;;;;5056153;28;20287;-32
2022/10/03 11:02:48;;;;;;;4.67;1.30;;;16.60;99.90;;;;;;5061881;28;20257;-31
2022/10/03 11:05:28;;;;;;;6.40;1.57;;;16.60;99.90;;;;;;5064475;28;20211;-32
2022/10/03 11:08:14;;;;;;;7.20;1.43;;;16.70;99.90;;;;;;5060148;28;20195;-31
2022/10/03 11:11:22;;;;;;;5.27;1.63;;;16.70;99.90;;;;;;5064666;28;20241;-31
2022/10/03 11:14:04;;;;;;;7.40;1.37;;;16.80;99.90;;;;;;5061978;28;20225;-32
2022/10/03 11:17:00;;;;;;;5.70;1.30;;;16.90;99.90;;;;;;5061861;28;20223;-30
2022/10/03 11:20:06;;;;;;;5.53;1.40;;;17.00;99.90;;;;;;5064946;28;20812;-30
2022/10/03 11:22:39;;;;;;;6.00;1.30;;;17.00;99.90;;;;;;5058523;28;20482;-32
2022/10/03 11:25:46;;;;;;;6.17;1.40;;;17.10;99.90;;;;;;5059464;28;21005;-33
2022/10/03 11:28:51;;;;;;;7.97;1.70;;;17.10;99.90;;;;;;5060004;28;20670;-33
2022/10/03 11:31:31;;;;;;;4.10;0.90;;;17.20;99.90;;;;;;5062321;28;20223;-33
2022/10/03 11:34:36;;;;;;;3.23;1.30;;;17.20;99.90;;;;;;5046231;28;20304;-33
2022/10/03 11:37:15;;;;;;;3.70;1.13;;;17.30;99.90;;;;;;5056607;28;21589;-33
2022/10/03 11:40:05;;;;;;;4.93;1.40;;;17.30;99.90;;;;;;5062675;28;20207;-32
2022/10/03 11:42:49;;;;;;;5.37;1.23;;;17.40;99.90;;;;;;5054289;28;20668;-31
2022/10/03 11:45:26;;;;;;;5.03;1.43;;;17.50;99.90;;;;;;5063194;28;20232;-31
2022/10/03 11:48:34;;;;;;;5.53;1.60;;;17.50;99.90;;;;;;5063265;28;20194;-31
2022/10/03 11:51:17;;;;;;;6.60;1.50;;;17.60;99.90;;;;;;5054109;28;20246;-33
2022/10/03 11:53:51;;;;;;;5.67;1.60;;;17.70;99.90;;;;;;5078703;28;20203;-33
2022/10/03 11:56:44;;;;;;;7.27;1.27;;;17.70;99.90;;;;;;5063143;28;20205;-33
2022/10/03 11:59:30;;;;;;;4.23;1.10;;;17.80;99.90;;;;;;5066788;28;20631;-33
2022/10/03 12:02:16;;;;;;;5.90;1.23;;;17.90;99.90;;;;;;5065781;28;20557;-33
2022/10/03 12:05:21;;;;;;;4.25;1.20;;;17.90;99.90;;;;;;5068300;28;20213;-33
2022/10/03 12:11:32;;;;;;;5.68;1.63;;;18.10;99.90;;;;;;5066553;28;20246;-33
2022/10/03 12:14:08;;;;;;;8.10;1.67;;;18.10;99.90;;;;;;5057185;28;20273;-33
2022/10/03 12:16:56;;;;;;;5.70;1.60;;;18.20;99.90;;;;;;5060775;28;20207;-33
2022/10/03 12:20:01;;;;;;;4.95;1.55;;;18.20;99.90;;;;;;5067409;28;20671;-33
2022/10/03 12:22:52;;;;;;;6.30;1.40;;;18.30;99.90;;;;;;5070410;28;20249;-33
2022/10/03 12:25:35;;;;;;;6.93;1.80;;;18.30;99.90;;;;;;5066140;28;20206;-33
2022/10/03 12:28:33;;;;;;;7.45;1.35;;;18.30;99.90;;;;;;5062025;28;20227;-33
2022/10/03 12:31:10;;;;;;;5.77;1.40;;;18.30;99.90;;;;;;5063597;28;20208;-33
2022/10/03 12:33:59;;;;;;;10.25;1.98;;;18.30;99.90;;;;;;5067159;28;20265;-31
2022/10/03 12:36:42;;;;;;;3.93;1.30;;;18.30;99.90;;;;;;5068003;28;20203;-33
2022/10/03 12:39:43;;;;;;;6.10;1.53;;;18.40;99.90;;;;;;5063053;28;20258;-31
2022/10/03 12:42:32;;;;;;;3.80;1.27;;;18.40;99.90;;;;;;5063351;28;20301;-31
2022/10/03 12:45:23;;;;;;;5.38;1.25;;;18.40;99.90;;;;;;5067597;28;20203;-31
2022/10/03 12:48:07;;;;;;;4.17;1.60;;;18.40;99.90;;;;;;5055566;28;20548;-31
2022/10/03 12:50:58;;;;;;;7.30;1.70;;;18.40;99.90;;;;;;5065934;28;20596;-31
2022/10/03 12:53:51;;;;;;;5.10;1.47;;;18.40;99.90;;;;;;5063592;28;20209;-33
2022/10/03 12:56:40;;;;;;;4.67;1.40;;;18.50;99.90;;;;;;5062666;28;20674;-31
2022/10/03 12:59:13;;;;;;;6.23;1.40;;;18.50;99.90;;;;;;5062352;28;20626;-33
2022/10/03 13:02:13;;;;;;;5.47;1.30;;;18.50;99.90;;;;;;5063985;28;20318;-31
2022/10/03 13:04:57;;;;;;;5.93;1.63;;;18.50;99.90;;;;;;5061798;28;20218;-31
2022/10/03 13:07:27;;;;;;;3.70;1.33;;;18.50;99.90;;;;;;5059777;28;20223;-33
2022/10/03 13:10:05;;;;;;;6.17;1.40;;;18.50;99.90;;;;;;5058662;28;20325;-32
2022/10/03 13:12:41;;;;;;;2.73;1.23;;;18.60;99.90;;;;;;5065041;28;20203;-31
2022/10/03 13:15:38;;;;;;;5.75;1.50;;;18.60;99.90;;;;;;5062010;28;20707;-31
2022/10/03 13:18:23;;;;;;;37.47;5.10;;;18.60;99.90;;;;;;5052165;28;20235;-31
2022/10/03 13:21:13;;;;;;;102.13;14.68;;;18.60;99.90;;;;;;5061761;28;20206;-31
2022/10/03 13:24:31;;;;;;;48.47;8.43;;;18.60;99.90;;;;;;5057359;28;20199;-33
2022/10/03 13:27:16;;;;;;;18.13;3.75;;;18.60;99.90;;;;;;5063706;28;20235;-31
2022/10/03 13:30:13;;;;;;;44.45;6.15;;;18.60;99.90;;;;;;5063405;28;20217;-32
2022/10/03 13:32:46;;;;;;;21.42;3.85;;;18.70;99.90;;;;;;5054240;28;20227;-32
2022/10/03 13:38:57;;;;;;;39.57;5.70;;;18.70;99.90;;;;;;5066423;28;20290;-31
2022/10/03 13:41:27;;;;;;;40.53;6.63;;;18.70;99.90;;;;;;5059982;28;20605;-32
2022/10/03 13:44:03;;;;;;;31.63;6.60;;;18.70;99.90;;;;;;5061552;28;20211;-31
2022/10/03 13:47:00;;;;;;;17.33;3.80;;;18.80;99.90;;;;;;5061682;28;20226;-31
2022/10/03 13:49:37;;;;;;;17.83;3.42;;;18.70;99.90;;;;;;5056827;28;20235;-31
2022/10/03 13:52:17;;;;;;;6.82;2.00;;;18.80;99.90;;;;;;5063706;28;20195;-31
2022/10/03 13:55:00;;;;;;;5.67;2.00;;;18.80;99.90;;;;;;5062882;28;20207;-31
2022/10/03 13:57:49;;;;;;;9.80;2.33;;;18.80;99.90;;;;;;5064682;28;20203;-32
2022/10/03 14:00:22;;;;;;;15.27;3.00;;;18.80;99.90;;;;;;5062192;28;20502;-31
2022/10/03 14:03:00;;;;;;;9.80;2.63;;;18.80;99.90;;;;;;5066223;28;20252;-31
2022/10/03 14:06:12;;;;;;;8.05;2.92;;;18.90;99.90;;;;;;5060881;28;20701;-31
2022/10/03 14:08:42;;;;;;;17.87;4.47;;;18.90;99.90;;;;;;5055789;28;20798;-31
2022/10/03 14:11:39;;;;;;;19.67;4.23;;;18.90;99.90;;;;;;5062217;28;20325;-32
2022/10/03 14:14:20;;;;;;;12.47;4.10;;;18.90;99.90;;;;;;5062274;28;20196;-31
2022/10/03 14:17:10;;;;;;;23.13;3.80;;;18.90;99.90;;;;;;5062190;28;20561;-32
2022/10/03 14:19:49;;;;;;;11.30;3.40;;;18.90;99.90;;;;;;5064796;28;20200;-32
2022/10/03 14:22:33;;;;;;;9.10;3.07;;;18.90;99.90;;;;;;5061044;28;20200;-31
2022/10/03 14:25:22;;;;;;;10.80;3.47;;;18.90;99.90;;;;;;5049356;28;20207;-32
2022/10/03 14:28:16;;;;;;;26.48;4.40;;;18.90;99.90;;;;;;5055439;28;20212;-33
2022/10/03 14:31:09;;;;;;;23.87;4.10;;;18.90;99.90;;;;;;5073921;28;20228;-32
2022/10/03 14:33:54;;;;;;;30.80;6.20;;;18.90;99.90;;;;;;5063446;28;20314;-32
2022/10/03 14:36:34;;;;;;;15.03;4.53;;;18.90;99.90;;;;;;5054656;28;20207;-32
2022/10/03 14:39:13;;;;;;;17.43;3.27;;;18.90;99.90;;;;;;5064919;28;20207;-31
2022/10/03 14:41:45;;;;;;;22.73;3.70;;;18.90;99.90;;;;;;5045322;28;20211;-31
2022/10/03 14:44:28;;;;;;;13.02;3.20;;;18.90;99.90;;;;;;5059531;28;20208;-32
2022/10/03 14:47:10;;;;;;;22.10;4.90;;;18.90;99.90;;;;;;5062886;28;20302;-31
2022/10/03 14:49:48;;;;;;;26.43;5.07;;;18.90;99.90;;;;;;5063239;28;20215;-31